Laguna, Brazil
Current Conditions -  °F | °C
As of 5:00 AM on Sunday 21 Dec 2014 (Local Time) from SBFL Reporting Station
Thunderstorm Thunderstorm  
Wind Chill: 73°   Ceiling: 2700
Heat Index: 73°   Visibility: 6mi
Dew Point: 70°   Wind: 8mph
Humidity: 88%   Direction: 110°ESE
Pressure: NA   Gusts: NA
Location:  28.48°S, 48.78°W
Report Text: SBFL 210700Z 11007KT 9999 VCTS SCT011 BKN027 FEW035CB 23/21 Q1005
Loading
Personal Weather Stations






























Interactive Weather Map New forecast layout! Learn more

10-Day Weather Forecast

Advertisements
Track Severe Weather on mobile